createdAt,value
2022-11-17T00:00:30.709Z,99986.16
2022-11-17T00:05:39.569Z,99988.06
2022-11-17T00:10:44.312Z,99995.35
2022-11-17T00:15:47.725Z,99997.77
2022-11-17T00:21:09.405Z,99999.96
2022-11-17T00:26:23.356Z,99999.17
2022-11-17T00:31:46.622Z,100001.08
2022-11-17T00:36:51.543Z,100006.19
2022-11-17T00:41:54.447Z,100009.21
2022-11-17T00:46:57.490Z,100010.80
2022-11-17T00:52:00.954Z,100020.16
2022-11-17T00:57:04.200Z,100017.33
2022-11-17T01:02:07.015Z,100019.44
2022-11-17T01:07:09.925Z,100021.44
2022-11-17T01:12:13.574Z,100021.07
2022-11-17T01:17:17.630Z,100022.10
2022-11-17T01:22:20.457Z,100020.63
2022-11-17T01:27:25.959Z,100018.64
2022-11-17T01:32:29.236Z,100020.09
2022-11-17T01:37:34.070Z,100019.95
2022-11-17T01:42:37.862Z,100018.73
2022-11-17T01:47:54.591Z,100016.40
2022-11-17T01:53:03.007Z,100021.35
2022-11-17T01:58:08.989Z,100015.23
2022-11-17T02:03:12.864Z,100012.67
2022-11-17T02:08:17.218Z,100013.15
2022-11-17T02:13:23.185Z,100010.14
2022-11-17T02:18:26.341Z,100008.96
2022-11-17T02:24:11.265Z,100005.30
2022-11-17T02:29:37.099Z,99999.56
2022-11-17T02:35:13.815Z,99996.85
2022-11-17T02:40:23.830Z,99994.29
2022-11-17T02:45:35.886Z,99997.13
2022-11-17T02:50:38.818Z,99991.80
2022-11-17T02:55:41.830Z,99994.18
2022-11-17T03:01:14.263Z,99995.15
2022-11-17T03:06:36.007Z,99999.45
2022-11-17T03:12:55.696Z,100003.69
2022-11-17T03:18:12.087Z,99998.20
2022-11-17T03:23:19.464Z,99996.35
2022-11-17T03:28:25.216Z,99994.00
2022-11-17T03:33:28.131Z,99996.77
2022-11-17T03:38:35.719Z,99997.86
2022-11-17T03:43:41.025Z,99997.83
2022-11-17T03:49:21.265Z,99994.95
2022-11-17T03:54:24.581Z,100004.05
2022-11-17T03:59:57.110Z,100001.79
2022-11-17T04:05:06.342Z,99992.67
2022-11-17T04:10:19.440Z,99990.83
2022-11-17T04:15:41.752Z,99992.90
2022-11-17T04:20:45.854Z,99990.96
2022-11-17T04:26:12.681Z,99997.85
2022-11-17T04:31:28.202Z,99996.92
2022-11-17T04:36:46.917Z,100000.98
2022-11-17T04:41:57.679Z,100002.79
2022-11-17T04:47:04.298Z,99999.96
2022-11-17T04:52:07.192Z,99996.27
2022-11-17T04:57:10.019Z,100001.69
2022-11-17T05:02:13.057Z,100007.95
2022-11-17T05:07:16.383Z,100002.83
2022-11-17T05:12:38.513Z,100007.55
2022-11-17T05:17:41.361Z,100006.91
2022-11-17T05:23:06.896Z,100003.55
2022-11-17T05:28:10.813Z,99999.55
2022-11-17T05:33:14.901Z,99997.96
2022-11-17T05:38:18.037Z,99997.33
2022-11-17T05:43:21.081Z,99998.81
2022-11-17T05:48:24.104Z,99997.73
2022-11-17T05:53:28.470Z,100000.06
2022-11-17T05:58:33.554Z,100003.71
2022-11-17T06:03:40.502Z,100007.91
2022-11-17T06:08:43.400Z,100005.73
2022-11-17T06:13:46.936Z,100011.42
2022-11-17T06:18:55.683Z,100015.88
2022-11-17T06:24:00.332Z,100018.86
2022-11-17T06:29:04.015Z,100018.59
2022-11-17T06:34:06.914Z,100016.96
2022-11-17T06:39:09.725Z,100022.88
2022-11-17T06:44:12.908Z,100028.91
2022-11-17T06:49:15.775Z,100030.11
2022-11-17T06:54:19.875Z,100029.61
2022-11-17T06:59:22.918Z,100031.46
2022-11-17T07:04:25.964Z,100028.00
2022-11-17T07:09:29.163Z,100028.13
2022-11-17T07:14:32.230Z,100029.55
2022-11-17T07:19:35.281Z,100027.75
2022-11-17T07:24:38.203Z,100032.04
2022-11-17T07:29:41.788Z,100033.34
2022-11-17T07:34:46.037Z,100036.58
2022-11-17T07:39:48.936Z,100046.29
2022-11-17T07:44:52.151Z,100055.34
2022-11-17T07:49:55.553Z,100054.91
2022-11-17T07:54:58.588Z,100052.02
2022-11-17T08:00:02.226Z,100055.50
2022-11-17T08:05:08.886Z,100053.23
2022-11-17T08:10:13.604Z,100049.16
2022-11-17T08:15:16.606Z,100043.94
2022-11-17T08:20:19.458Z,100049.90
2022-11-17T08:25:25.160Z,100049.41
2022-11-17T08:30:28.766Z,100048.21
2022-11-17T08:35:37.292Z,100046.42
2022-11-17T08:40:41.443Z,100049.40
2022-11-17T08:46:05.712Z,100049.05
2022-11-17T08:51:12.073Z,100046.52
2022-11-17T08:56:15.688Z,100044.84
2022-11-17T09:01:18.935Z,100047.95
2022-11-17T09:07:52.640Z,100042.52
2022-11-17T09:13:38.668Z,100039.48
2022-11-17T09:18:42.015Z,100042.40
2022-11-17T09:31:30.207Z,100041.21
2022-11-17T10:11:51.941Z,100017.73
2022-11-17T10:24:57.971Z,100010.10
2022-11-17T10:30:14.590Z,100003.45
2022-11-17T10:35:37.213Z,100001.94
2022-11-17T10:40:41.382Z,100000.85
2022-11-17T10:45:48.409Z,99999.05
2022-11-17T10:51:04.309Z,99999.98
2022-11-17T10:56:16.416Z,99998.45
2022-11-17T11:01:32.655Z,99997.86
2022-11-17T11:06:36.153Z,99995.30
2022-11-17T11:11:48.589Z,99993.30
2022-11-17T11:16:51.678Z,99993.80
2022-11-17T11:22:16.958Z,99983.37
2022-11-17T11:27:47.523Z,99988.08
2022-11-17T11:33:41.427Z,99981.30
2022-11-17T11:39:04.640Z,99979.52
2022-11-17T11:44:41.239Z,99980.58
2022-11-17T11:49:57.560Z,99974.54
2022-11-17T11:55:31.819Z,99974.13
2022-11-17T12:00:34.787Z,99971.75
2022-11-17T12:06:40.622Z,99978.63
2022-11-17T12:12:02.084Z,99976.41
2022-11-17T12:17:13.912Z,99978.46
2022-11-17T12:22:29.441Z,99974.73
2022-11-17T12:27:43.861Z,99974.52
2022-11-17T12:32:53.117Z,99970.76
2022-11-17T12:38:14.390Z,99967.70
2022-11-17T12:43:25.507Z,99966.67
2022-11-17T12:48:36.937Z,99958.14
2022-11-17T12:54:08.206Z,99951.90
2022-11-17T12:59:30.109Z,99950.39
2022-11-17T13:04:52.292Z,99945.98
2022-11-17T13:09:59.094Z,99940.64
2022-11-17T13:15:05.246Z,99937.00
2022-11-17T13:20:29.756Z,99937.28
2022-11-17T13:25:34.245Z,99937.56
2022-11-17T13:30:37.592Z,99933.93
2022-11-17T13:35:41.653Z,99929.24
2022-11-17T13:40:59.611Z,99930.27
2022-11-17T13:46:04.393Z,99929.66
2022-11-17T13:51:28.078Z,99921.43
2022-11-17T13:56:39.495Z,99923.08
2022-11-17T14:01:42.525Z,99924.45
2022-11-17T14:06:54.442Z,99926.56
2022-11-17T14:12:01.897Z,99927.56
2022-11-17T14:17:20.988Z,99925.91
2022-11-17T14:22:31.322Z,99920.89
2022-11-17T14:27:36.266Z,99915.63
2022-11-17T14:32:40.459Z,99916.21
2022-11-17T14:37:44.745Z,99917.38
2022-11-17T14:42:48.178Z,99920.77
2022-11-17T14:47:51.334Z,99921.77
2022-11-17T14:52:54.435Z,99921.36
2022-11-17T14:57:57.497Z,99916.92
2022-11-17T15:03:00.425Z,99921.72
2022-11-17T15:08:05.041Z,99924.66
2022-11-17T15:13:08.455Z,99923.30
2022-11-17T15:18:14.033Z,99926.01
2022-11-17T15:23:17.084Z,99925.84
2022-11-17T15:28:23.048Z,99925.54
2022-11-17T15:33:26.229Z,99924.02
2022-11-17T15:38:30.780Z,99922.63
2022-11-17T15:43:37.301Z,99911.96
2022-11-17T15:48:44.565Z,99908.31
2022-11-17T15:53:48.057Z,99904.71
2022-11-17T15:59:01.935Z,99909.11
2022-11-17T16:04:10.805Z,99912.67
2022-11-17T16:09:14.054Z,99905.31
2022-11-17T16:14:17.477Z,99912.59
2022-11-17T16:19:22.382Z,99921.14
2022-11-17T16:24:25.318Z,99923.42
2022-11-17T16:29:28.246Z,99919.23
2022-11-17T16:34:31.190Z,99919.10
2022-11-17T16:39:34.051Z,99910.86
2022-11-17T16:44:37.021Z,99905.40
2022-11-17T16:49:39.952Z,99902.88
2022-11-17T16:54:43.249Z,99904.17
2022-11-17T16:59:46.217Z,99909.28
2022-11-17T17:04:50.511Z,99895.33
2022-11-17T17:09:53.564Z,99890.34
2022-11-17T17:14:56.590Z,99894.52
2022-11-17T17:19:59.662Z,99891.58
2022-11-17T17:25:03.853Z,99887.30
2022-11-17T17:30:08.910Z,99882.67
2022-11-17T17:35:11.765Z,99879.92
2022-11-17T17:40:14.843Z,99877.50
2022-11-17T17:45:17.909Z,99870.25
2022-11-17T17:50:20.796Z,99869.14
2022-11-17T17:55:25.257Z,99860.76
2022-11-17T18:00:31.592Z,99859.30
2022-11-17T18:05:35.788Z,99860.55
2022-11-17T18:10:38.874Z,99859.85
2022-11-17T18:15:42.419Z,99853.17
2022-11-17T18:20:46.521Z,99852.15
2022-11-17T18:25:49.439Z,99848.58
2022-11-17T18:30:53.205Z,99849.95
2022-11-17T18:36:07.037Z,99844.97
2022-11-17T18:41:12.685Z,99835.74
2022-11-17T18:46:18.528Z,99836.23
2022-11-17T18:51:28.270Z,99834.45
2022-11-17T18:56:34.484Z,99837.42
2022-11-17T19:01:39.131Z,99829.17
2022-11-17T19:06:44.161Z,99828.27
2022-11-17T19:11:47.101Z,99827.20
2022-11-17T19:16:50.963Z,99817.02
2022-11-17T19:21:53.914Z,99820.64
2022-11-17T19:26:56.901Z,99815.85
2022-11-17T19:32:00.243Z,99818.55
2022-11-17T19:37:05.537Z,99813.50
2022-11-17T19:42:10.076Z,99816.71
2022-11-17T19:47:13.384Z,99810.38
2022-11-17T19:52:16.965Z,99804.80
2022-11-17T19:57:20.026Z,99808.86
2022-11-17T20:02:22.918Z,99809.77
2022-11-17T20:07:26.305Z,99803.98
2022-11-17T20:12:29.289Z,99807.97
2022-11-17T20:17:34.959Z,99806.20
2022-11-17T20:22:42.329Z,99807.02
2022-11-17T20:27:45.882Z,99804.69
2022-11-17T20:32:48.761Z,99801.18
2022-11-17T20:37:51.684Z,99794.30
2022-11-17T20:42:54.575Z,99781.98
2022-11-17T20:47:57.887Z,99777.27
2022-11-17T20:53:03.184Z,99783.52
2022-11-17T20:58:06.080Z,99779.23
2022-11-17T21:03:09.153Z,99771.95
2022-11-17T21:08:12.190Z,99767.59
2022-11-17T21:13:15.078Z,99759.86
2022-11-17T21:18:23.932Z,99749.69
2022-11-17T21:23:27.941Z,99747.49
2022-11-17T21:28:31.280Z,99742.63
2022-11-17T21:33:35.700Z,99740.17
2022-11-17T21:38:38.742Z,99737.59
2022-11-17T21:43:45.047Z,99728.62
2022-11-17T21:48:48.356Z,99734.92
2022-11-17T21:53:56.639Z,99729.66
2022-11-17T21:59:02.111Z,99722.23
2022-11-17T22:04:05.140Z,99724.77
2022-11-17T22:09:08.158Z,99724.30
2022-11-17T22:14:16.353Z,99727.84
2022-11-17T22:19:22.302Z,99727.16
2022-11-17T22:24:25.232Z,99730.31
2022-11-17T22:29:29.209Z,99718.31
2022-11-17T22:34:32.054Z,99715.20
2022-11-17T22:39:34.912Z,99718.67
2022-11-17T22:44:37.776Z,99720.85
2022-11-17T22:49:40.710Z,99711.02
2022-11-17T22:54:43.541Z,99707.23
2022-11-17T22:59:46.552Z,99708.70
2022-11-17T23:04:49.438Z,99702.79
2022-11-17T23:09:52.291Z,99699.55
2022-11-17T23:14:55.268Z,99703.09
2022-11-17T23:19:58.547Z,99711.48
2022-11-17T23:25:02.552Z,99713.46
2022-11-17T23:30:06.958Z,99711.14
2022-11-17T23:35:10.402Z,99706.70
2022-11-17T23:40:13.645Z,99694.99
2022-11-17T23:45:17.045Z,99687.84
2022-11-17T23:50:19.999Z,99688.52
2022-11-17T23:55:22.890Z,99691.89
